createdAt,value
2023-03-10T00:00:24.134Z,1.500
2023-03-10T00:01:22.300Z,2.000
2023-03-10T00:02:24.008Z,1.400
2023-03-10T00:03:24.307Z,1.200
2023-03-10T00:04:34.515Z,1.750
2023-03-10T00:05:23.861Z,1.700
2023-03-10T00:06:29.355Z,2.100
2023-03-10T00:07:21.691Z,1.400
2023-03-10T00:08:44.805Z,2.200
2023-03-10T00:09:27.062Z,1.700
2023-03-10T00:10:23.048Z,1.600
2023-03-10T00:11:24.492Z,2.000
2023-03-10T00:12:31.839Z,1.800
2023-03-10T00:13:24.764Z,1.300
2023-03-10T00:14:22.432Z,1.650
2023-03-10T00:15:32.196Z,1.950
2023-03-10T00:16:29.285Z,2.000
2023-03-10T00:17:23.865Z,1.600
2023-03-10T00:18:23.297Z,2.150
2023-03-10T00:19:29.984Z,1.700
2023-03-10T00:20:24.135Z,2.200
2023-03-10T00:21:21.449Z,1.600
2023-03-10T00:22:23.145Z,2.450
2023-03-10T00:23:27.600Z,2.200
2023-03-10T00:24:21.925Z,2.500
2023-03-10T00:25:33.540Z,2.350
2023-03-10T00:26:29.323Z,2.050
2023-03-10T00:27:24.201Z,1.850
2023-03-10T00:28:19.885Z,2.200
2023-03-10T00:29:22.824Z,2.250
2023-03-10T00:30:25.775Z,2.550
2023-03-10T00:31:24.506Z,2.900
2023-03-10T00:32:24.102Z,2.550
2023-03-10T00:33:21.473Z,2.650
2023-03-10T00:34:25.070Z,2.200
2023-03-10T00:35:20.136Z,2.000
2023-03-10T00:36:24.321Z,2.400
2023-03-10T00:37:27.916Z,3.150
2023-03-10T00:38:21.898Z,2.700
2023-03-10T00:39:27.060Z,2.000
2023-03-10T00:40:19.725Z,2.800
2023-03-10T00:41:23.989Z,2.000
2023-03-10T00:42:20.085Z,3.800
2023-03-10T00:43:27.293Z,4.300
2023-03-10T00:44:25.615Z,3.700
2023-03-10T00:45:22.044Z,3.850
2023-03-10T00:46:27.253Z,4.100
2023-03-10T00:47:20.268Z,4.250
2023-03-10T00:48:23.833Z,3.900
2023-03-10T00:49:20.141Z,4.400
2023-03-10T00:50:21.634Z,2.700
2023-03-10T00:51:36.056Z,3.500
2023-03-10T00:52:39.293Z,3.400
2023-03-10T00:53:32.354Z,3.000
2023-03-10T00:54:28.013Z,3.300
2023-03-10T00:55:24.354Z,5.400
2023-03-10T00:56:20.013Z,4.150
2023-03-10T00:57:34.855Z,3.500
2023-03-10T00:58:20.291Z,2.900
2023-03-10T00:59:24.037Z,4.400
2023-03-10T01:00:36.635Z,4.050
2023-03-10T01:01:28.344Z,5.300
2023-03-10T01:02:20.831Z,4.750
2023-03-10T01:03:19.883Z,3.500
2023-03-10T01:04:32.368Z,3.950
2023-03-10T01:05:23.335Z,4.600
2023-03-10T01:06:22.315Z,7.400
2023-03-10T01:07:25.707Z,5.800
2023-03-10T01:08:28.191Z,6.200
2023-03-10T01:09:24.903Z,5.400
2023-03-10T01:10:23.337Z,5.700
2023-03-10T01:11:31.352Z,6.050
2023-03-10T01:12:26.239Z,6.450
2023-03-10T01:13:22.387Z,6.200
2023-03-10T01:14:34.501Z,6.450
2023-03-10T01:15:36.015Z,7.000
2023-03-10T01:16:24.836Z,7.150
2023-03-10T01:17:22.472Z,5.100
2023-03-10T01:18:23.086Z,6.150
2023-03-10T01:19:26.725Z,6.500
2023-03-10T01:20:22.277Z,6.000
2023-03-10T01:21:33.872Z,5.800
2023-03-10T01:22:29.224Z,6.400
2023-03-10T01:23:24.252Z,6.400
2023-03-10T01:24:20.320Z,6.950
2023-03-10T01:25:23.220Z,6.300
2023-03-10T01:26:25.895Z,8.100
2023-03-10T01:27:22.209Z,7.350
2023-03-10T01:28:33.785Z,8.600
2023-03-10T01:29:28.111Z,7.100
2023-03-10T01:30:25.831Z,7.700
2023-03-10T01:31:34.039Z,9.000
2023-03-10T01:32:23.688Z,8.600
2023-03-10T01:33:20.508Z,6.950
2023-03-10T01:34:22.418Z,8.400
2023-03-10T01:35:23.037Z,8.800
2023-03-10T01:36:29.716Z,8.600
2023-03-10T01:37:24.144Z,9.500
2023-03-10T01:38:21.539Z,13.750
2023-03-10T01:39:31.024Z,9.350
2023-03-10T01:40:20.760Z,8.500
2023-03-10T01:41:23.267Z,9.600
2023-03-10T01:42:33.367Z,10.450
2023-03-10T01:43:28.452Z,8.700
2023-03-10T01:44:25.907Z,9.900
2023-03-10T01:45:20.119Z,8.800
2023-03-10T01:46:21.555Z,11.800
2023-03-10T01:47:29.327Z,9.350
2023-03-10T01:48:22.169Z,10.700
2023-03-10T01:49:32.309Z,11.500
2023-03-10T01:50:28.436Z,9.550
2023-03-10T01:51:25.172Z,8.500
2023-03-10T01:52:20.154Z,10.900
2023-03-10T01:53:32.987Z,8.550
2023-03-10T01:54:26.039Z,9.400
2023-03-10T01:55:27.353Z,9.750
2023-03-10T01:57:01.866Z,9.350
2023-03-10T01:57:28.246Z,9.200
2023-03-10T01:58:25.788Z,9.300
2023-03-10T01:59:20.114Z,8.650
2023-03-10T02:00:52.058Z,9.300
2023-03-10T02:01:27.451Z,9.700
2023-03-10T02:02:43.233Z,9.000
2023-03-10T02:03:38.432Z,9.050
2023-03-10T02:04:35.535Z,8.200
2023-03-10T02:10:28.094Z,7.700
2023-03-10T02:11:54.313Z,9.000
2023-03-10T02:12:29.963Z,9.650
2023-03-10T02:13:36.540Z,8.800
2023-03-10T02:14:45.412Z,8.200
2023-03-10T02:19:25.828Z,9.400
2023-03-10T02:20:22.605Z,9.700
2023-03-10T02:21:22.551Z,9.000
2023-03-10T02:22:26.046Z,8.300
2023-03-10T02:23:23.915Z,10.000
2023-03-10T02:24:30.492Z,8.200
2023-03-10T02:25:28.691Z,8.900
2023-03-10T02:26:20.687Z,8.500
2023-03-10T02:27:20.214Z,8.500
2023-03-10T02:28:25.375Z,9.700
2023-03-10T02:29:52.313Z,8.900
2023-03-10T02:30:23.938Z,10.000
2023-03-10T02:31:20.885Z,9.650
2023-03-10T02:32:21.281Z,8.600
2023-03-10T02:33:24.562Z,9.000
2023-03-10T02:34:21.941Z,7.800
2023-03-10T02:35:34.450Z,9.200
2023-03-10T02:36:26.459Z,8.200
2023-03-10T02:37:23.238Z,7.500
2023-03-10T02:38:33.141Z,8.450
2023-03-10T02:39:23.457Z,9.600
2023-03-10T02:40:29.303Z,8.350
2023-03-10T02:41:21.029Z,8.650
2023-03-10T02:42:31.348Z,8.400
2023-03-10T02:43:26.343Z,10.000
2023-03-10T02:44:22.719Z,9.450
2023-03-10T02:45:32.285Z,8.400
2023-03-10T02:46:30.027Z,9.450
2023-03-10T02:47:24.777Z,11.000
2023-03-10T02:48:28.451Z,9.250
2023-03-10T02:49:31.461Z,8.750
2023-03-10T02:50:21.507Z,8.900
2023-03-10T02:51:24.108Z,10.350
2023-03-10T02:52:43.876Z,10.200
2023-03-10T02:53:29.277Z,8.500
2023-03-10T02:54:24.366Z,9.100
2023-03-10T02:55:28.935Z,8.050
2023-03-10T02:56:23.765Z,8.600
2023-03-10T02:57:27.726Z,8.300
2023-03-10T02:58:36.733Z,8.200
2023-03-10T02:59:19.932Z,8.500
2023-03-10T03:00:28.349Z,8.400
2023-03-10T03:01:21.743Z,9.500
2023-03-10T03:02:20.391Z,11.100
2023-03-10T03:03:25.959Z,8.900
2023-03-10T03:04:27.270Z,9.700
2023-03-10T03:05:25.622Z,10.300
2023-03-10T03:06:34.121Z,10.550
2023-03-10T03:07:28.676Z,11.000
2023-03-10T03:08:25.132Z,9.600
2023-03-10T03:09:20.053Z,9.950
2023-03-10T03:10:31.193Z,10.400
2023-03-10T03:11:23.497Z,9.800
2023-03-10T03:12:22.271Z,8.900
2023-03-10T03:13:32.349Z,10.750
2023-03-10T03:14:30.244Z,10.450
2023-03-10T03:15:25.170Z,12.100
2023-03-10T03:16:23.059Z,10.050
2023-03-10T03:17:35.973Z,9.050
2023-03-10T03:18:27.202Z,11.200
2023-03-10T03:19:23.799Z,9.150
2023-03-10T03:20:33.801Z,10.800
2023-03-10T03:21:28.119Z,10.500
2023-03-10T03:22:29.607Z,10.450
2023-03-10T03:23:20.339Z,10.600
2023-03-10T03:24:31.650Z,10.200
2023-03-10T03:25:27.308Z,10.750
2023-03-10T03:26:24.509Z,11.600
2023-03-10T03:27:34.311Z,9.000
2023-03-10T03:28:31.717Z,9.100
2023-03-10T03:29:25.668Z,9.250
2023-03-10T03:30:22.276Z,7.450
2023-03-10T03:31:32.327Z,8.400
2023-03-10T03:32:28.637Z,9.050
2023-03-10T03:33:30.305Z,8.600
2023-03-10T03:34:21.546Z,9.750
2023-03-10T03:35:28.601Z,7.400
2023-03-10T03:36:26.868Z,9.150
2023-03-10T03:37:21.779Z,8.350
2023-03-10T03:38:32.619Z,8.700
2023-03-10T03:39:30.173Z,7.900
2023-03-10T03:40:22.643Z,7.300
2023-03-10T03:41:25.483Z,7.700
2023-03-10T03:42:29.942Z,7.450
2023-03-10T03:43:24.499Z,8.000
2023-03-10T03:44:20.355Z,7.000
2023-03-10T03:45:34.040Z,7.250
2023-03-10T03:46:26.516Z,7.500
2023-03-10T03:47:23.662Z,7.150
2023-03-10T03:48:22.357Z,8.300
2023-03-10T03:49:22.708Z,6.600
2023-03-10T03:50:26.245Z,5.900
2023-03-10T03:51:20.569Z,7.450
2023-03-10T03:52:35.428Z,6.700
2023-03-10T03:53:27.292Z,7.500
2023-03-10T03:54:23.541Z,6.100
2023-03-10T03:55:22.290Z,6.850
2023-03-10T03:56:32.577Z,5.900
2023-03-10T03:57:19.689Z,4.500
2023-03-10T03:58:23.123Z,7.350
2023-03-10T03:59:34.433Z,7.050
2023-03-10T04:00:26.330Z,6.950
2023-03-10T04:01:24.330Z,5.200
2023-03-10T04:02:25.370Z,6.800
2023-03-10T04:03:32.960Z,5.600
2023-03-10T04:04:26.219Z,6.750
2023-03-10T04:05:20.605Z,5.850
2023-03-10T04:06:19.903Z,6.700
2023-03-10T04:07:28.820Z,5.650
2023-03-10T04:08:22.302Z,4.900
2023-03-10T04:09:28.469Z,7.700
2023-03-10T04:10:29.765Z,6.550
2023-03-10T04:11:28.626Z,6.800
2023-03-10T04:12:22.937Z,5.700
2023-03-10T04:13:23.419Z,6.250
2023-03-10T04:14:27.000Z,7.900
2023-03-10T04:15:23.550Z,6.300
2023-03-10T04:16:34.766Z,5.000
2023-03-10T04:17:28.244Z,5.400
2023-03-10T04:18:25.582Z,6.650
2023-03-10T04:19:20.934Z,4.300
2023-03-10T04:20:26.419Z,5.950
2023-03-10T04:21:25.881Z,5.050
2023-03-10T04:22:22.413Z,5.000
2023-03-10T04:23:34.820Z,6.000
2023-03-10T04:24:22.235Z,4.900
2023-03-10T04:25:24.327Z,4.900
2023-03-10T04:26:21.474Z,5.200
2023-03-10T04:27:23.073Z,4.550
2023-03-10T04:28:26.182Z,5.400
2023-03-10T04:29:23.346Z,4.950
2023-03-10T04:30:38.263Z,5.650
2023-03-10T04:31:25.116Z,5.400
2023-03-10T04:32:25.670Z,4.550
2023-03-10T04:33:20.265Z,5.450
2023-03-10T04:34:26.619Z,5.300
2023-03-10T04:35:19.482Z,4.650
2023-03-10T04:36:22.699Z,4.400
2023-03-10T04:37:34.089Z,4.950
2023-03-10T04:38:28.299Z,4.700
2023-03-10T04:39:25.934Z,5.450
2023-03-10T04:40:20.938Z,4.950
2023-03-10T04:41:35.773Z,4.200
2023-03-10T04:42:27.225Z,5.050
2023-03-10T04:43:22.153Z,5.200
2023-03-10T04:44:34.815Z,4.600
2023-03-10T04:45:32.768Z,6.800
2023-03-10T04:46:25.373Z,7.100
2023-03-10T04:47:22.435Z,4.650
2023-03-10T04:48:31.689Z,5.900
2023-03-10T04:49:26.606Z,4.700
2023-03-10T04:50:23.225Z,5.550
2023-03-10T04:51:34.166Z,5.600
2023-03-10T04:52:29.662Z,5.400
2023-03-10T04:53:21.492Z,5.600
2023-03-10T04:54:20.626Z,5.650
2023-03-10T04:55:30.282Z,4.800
2023-03-10T04:56:34.377Z,5.250
2023-03-10T04:57:25.763Z,6.000
2023-03-10T04:58:35.307Z,5.000
2023-03-10T04:59:28.643Z,5.600
2023-03-10T05:00:26.298Z,5.700
2023-03-10T05:01:20.592Z,4.850
2023-03-10T05:02:30.336Z,5.100
2023-03-10T05:03:27.853Z,5.400
2023-03-10T05:04:22.676Z,6.100
2023-03-10T05:05:23.014Z,6.050
2023-03-10T05:06:29.984Z,6.150
2023-03-10T05:07:26.771Z,6.200
2023-03-10T05:08:20.711Z,3.700
2023-03-10T05:09:33.301Z,6.000
2023-03-10T05:10:27.815Z,5.700
2023-03-10T05:11:22.381Z,6.100
2023-03-10T05:12:25.802Z,4.000
2023-03-10T05:13:19.811Z,4.200
2023-03-10T05:14:24.472Z,4.000
2023-03-10T05:15:20.433Z,3.300
2023-03-10T05:16:32.684Z,4.100
2023-03-10T05:17:28.309Z,4.500
2023-03-10T05:18:24.143Z,3.300
2023-03-10T05:19:27.969Z,4.500
2023-03-10T05:20:20.835Z,2.900
2023-03-10T05:21:24.273Z,2.500
2023-03-10T05:22:20.430Z,3.450
2023-03-10T05:23:32.716Z,3.200
2023-03-10T05:24:27.342Z,2.650
2023-03-10T05:25:22.424Z,3.300
2023-03-10T05:26:35.157Z,2.650
2023-03-10T05:27:26.851Z,4.750
2023-03-10T05:28:25.912Z,2.300
2023-03-10T05:29:24.381Z,1.500
2023-03-10T05:30:31.797Z,2.800
2023-03-10T05:31:26.597Z,3.050
2023-03-10T05:32:24.115Z,1.900
2023-03-10T05:33:38.097Z,1.950
2023-03-10T05:34:28.878Z,1.500
2023-03-10T05:35:27.706Z,3.350
2023-03-10T05:36:21.012Z,1.100
2023-03-10T05:37:31.032Z,1.850
2023-03-10T05:38:27.822Z,1.800
2023-03-10T05:39:22.192Z,3.050
2023-03-10T05:40:20.255Z,1.450
2023-03-10T05:41:33.127Z,1.600
2023-03-10T05:42:21.214Z,3.200
2023-03-10T05:43:22.868Z,1.600
2023-03-10T05:44:34.608Z,1.650
2023-03-10T05:45:26.296Z,2.200
2023-03-10T05:46:22.839Z,2.400
2023-03-10T05:47:23.503Z,2.550
2023-03-10T05:48:28.581Z,1.000
2023-03-10T05:49:37.379Z,1.850
2023-03-10T05:50:22.825Z,2.300
2023-03-10T05:51:21.110Z,2.700
2023-03-10T05:52:26.605Z,2.300
2023-03-10T05:53:23.730Z,2.700
2023-03-10T05:54:29.016Z,2.800
2023-03-10T05:55:28.569Z,2.000
2023-03-10T05:56:26.326Z,2.900
2023-03-10T05:57:20.897Z,2.000
2023-03-10T05:58:23.895Z,2.900
2023-03-10T05:59:23.449Z,2.950
2023-03-10T06:00:38.260Z,1.600
2023-03-10T06:01:31.893Z,2.500
2023-03-10T06:02:30.063Z,2.700
2023-03-10T06:03:24.797Z,2.750
2023-03-10T06:04:20.717Z,2.800
2023-03-10T06:05:25.952Z,2.750
2023-03-10T06:06:21.488Z,2.500
2023-03-10T06:07:22.554Z,3.700
2023-03-10T06:08:46.888Z,3.300
2023-03-10T06:09:19.510Z,1.750
2023-03-10T06:10:23.003Z,3.500
2023-03-10T06:11:21.401Z,2.300
2023-03-10T06:12:34.094Z,2.900
2023-03-10T06:13:22.675Z,2.900
2023-03-10T06:14:22.417Z,4.100
2023-03-10T06:15:35.110Z,2.300
2023-03-10T06:16:24.305Z,2.600
2023-03-10T06:17:25.630Z,2.100
2023-03-10T06:18:36.517Z,3.800
2023-03-10T06:19:37.035Z,2.700
2023-03-10T06:20:26.446Z,4.550
2023-03-10T06:21:22.950Z,5.000
2023-03-10T06:22:33.353Z,5.100
2023-03-10T06:23:28.007Z,3.950
2023-03-10T06:24:40.285Z,3.000
2023-03-10T06:25:44.863Z,3.700
2023-03-10T06:26:36.536Z,5.300
2023-03-10T06:27:22.867Z,7.350
2023-03-10T06:28:22.373Z,6.100
2023-03-10T06:29:20.651Z,4.550
2023-03-10T06:31:03.249Z,6.100
2023-03-10T06:31:40.103Z,3.900
2023-03-10T06:32:34.675Z,6.200
2023-03-10T06:33:29.091Z,4.850
2023-03-10T06:34:26.854Z,5.700
2023-03-10T06:35:21.988Z,4.300
2023-03-10T06:36:25.758Z,4.650
2023-03-10T06:37:32.503Z,4.200
2023-03-10T06:38:20.066Z,4.150
2023-03-10T06:39:35.793Z,3.100
2023-03-10T06:40:30.686Z,4.700
2023-03-10T06:41:38.739Z,3.550
2023-03-10T06:42:22.603Z,4.300
2023-03-10T06:43:24.582Z,4.400
2023-03-10T06:44:24.464Z,4.750
2023-03-10T06:45:21.660Z,3.900
2023-03-10T06:46:20.467Z,4.050
2023-03-10T06:47:33.186Z,4.600
2023-03-10T06:48:31.356Z,6.050
2023-03-10T06:49:22.175Z,4.100
2023-03-10T06:50:31.512Z,5.100
2023-03-10T06:51:19.831Z,4.950
2023-03-10T06:52:24.689Z,5.900
2023-03-10T06:53:20.340Z,5.500
2023-03-10T06:54:34.973Z,6.200
2023-03-10T06:55:21.365Z,8.100
2023-03-10T06:56:21.077Z,6.000
2023-03-10T06:57:31.938Z,4.850
2023-03-10T06:58:23.506Z,6.700
2023-03-10T06:59:24.641Z,5.900
2023-03-10T07:00:21.798Z,6.300
2023-03-10T07:01:26.370Z,5.400
2023-03-10T07:02:26.502Z,5.500
2023-03-10T07:03:37.659Z,6.000
2023-03-10T07:04:35.013Z,6.500
2023-03-10T07:05:28.490Z,5.100
2023-03-10T07:06:20.685Z,5.850
2023-03-10T07:07:20.205Z,6.700
2023-03-10T07:08:33.360Z,4.300
2023-03-10T07:09:26.508Z,4.700
2023-03-10T07:10:24.411Z,4.950
2023-03-10T07:11:33.481Z,5.200
2023-03-10T07:12:24.997Z,5.200
2023-03-10T07:13:26.321Z,5.350
2023-03-10T07:14:24.490Z,4.500
2023-03-10T07:15:32.461Z,5.450
2023-03-10T07:16:26.692Z,4.850
2023-03-10T07:17:22.276Z,4.300
2023-03-10T07:18:30.128Z,4.100
2023-03-10T07:19:28.375Z,5.850
2023-03-10T07:20:25.108Z,8.000
2023-03-10T07:21:24.337Z,4.400
2023-03-10T07:22:22.667Z,3.950
2023-03-10T07:23:21.198Z,3.000
2023-03-10T07:24:22.520Z,4.550
2023-03-10T07:25:32.324Z,7.050
2023-03-10T07:26:29.637Z,5.300
2023-03-10T07:27:24.873Z,4.100
2023-03-10T07:28:20.969Z,4.400
2023-03-10T07:29:26.385Z,5.650
2023-03-10T07:30:27.459Z,4.050
2023-03-10T07:31:22.707Z,3.900
2023-03-10T07:32:23.882Z,6.050
2023-03-10T07:33:28.313Z,5.100
2023-03-10T07:34:24.036Z,5.300
2023-03-10T07:35:20.404Z,4.750
2023-03-10T07:36:25.269Z,5.000
2023-03-10T07:37:23.112Z,5.150
2023-03-10T07:38:22.428Z,4.600
2023-03-10T07:39:26.783Z,4.500
2023-03-10T07:40:22.468Z,4.800
2023-03-10T07:41:24.058Z,5.550
2023-03-10T07:42:23.018Z,5.900
2023-03-10T07:43:19.558Z,5.350
2023-03-10T07:44:19.899Z,5.400
2023-03-10T07:45:22.860Z,6.950
2023-03-10T07:46:28.997Z,5.850
2023-03-10T07:47:28.519Z,6.550
2023-03-10T07:48:26.551Z,5.000
2023-03-10T07:49:22.169Z,4.200
2023-03-10T07:50:22.738Z,5.600
2023-03-10T07:51:19.370Z,5.650
2023-03-10T07:52:24.983Z,5.300
2023-03-10T07:53:33.323Z,6.450
2023-03-10T07:54:28.593Z,4.850
2023-03-10T07:55:26.060Z,5.500
2023-03-10T07:56:21.158Z,6.200
2023-03-10T07:57:25.019Z,5.400
2023-03-10T07:58:27.923Z,6.650
2023-03-10T07:59:22.888Z,5.700
2023-03-10T08:00:23.578Z,5.400
2023-03-10T08:01:20.708Z,5.500
2023-03-10T08:02:25.606Z,4.700
2023-03-10T08:03:20.672Z,6.350
2023-03-10T08:04:34.348Z,4.750
2023-03-10T08:05:27.402Z,4.000
2023-03-10T08:06:24.804Z,6.000
2023-03-10T08:07:26.129Z,6.200
2023-03-10T08:08:23.942Z,6.200
2023-03-10T08:09:26.293Z,5.150
2023-03-10T08:10:20.712Z,4.950
2023-03-10T08:11:33.060Z,7.200
2023-03-10T08:12:28.243Z,6.100
2023-03-10T08:13:22.774Z,5.700
2023-03-10T08:14:23.138Z,5.450
2023-03-10T08:15:23.253Z,4.800
2023-03-10T08:16:25.075Z,7.400
2023-03-10T08:17:20.655Z,6.700
2023-03-10T08:18:31.778Z,5.900
2023-03-10T08:19:22.579Z,7.000
2023-03-10T08:20:23.965Z,5.350
2023-03-10T08:21:27.849Z,6.050
2023-03-10T08:22:33.228Z,6.050
2023-03-10T08:23:20.345Z,5.900
2023-03-10T08:24:20.611Z,5.250
2023-03-10T08:25:23.426Z,5.000
2023-03-10T08:26:26.415Z,6.900
2023-03-10T08:27:23.605Z,5.400
2023-03-10T08:28:35.407Z,5.800
2023-03-10T08:29:23.782Z,7.400
2023-03-10T08:30:19.684Z,5.750
2023-03-10T08:31:21.564Z,5.300
2023-03-10T08:32:34.288Z,5.250
2023-03-10T08:33:27.628Z,5.700
2023-03-10T08:34:22.507Z,4.900
2023-03-10T08:35:36.446Z,6.400
2023-03-10T08:36:21.059Z,6.700
2023-03-10T08:37:25.118Z,6.550
2023-03-10T08:38:23.286Z,5.800
2023-03-10T08:39:33.630Z,5.700
2023-03-10T08:40:26.399Z,4.900
2023-03-10T08:41:22.289Z,6.050
2023-03-10T08:42:25.052Z,5.500
2023-03-10T08:43:32.336Z,4.850
2023-03-10T08:44:25.374Z,4.600
2023-03-10T08:45:20.595Z,5.050
2023-03-10T08:46:30.902Z,5.950
2023-03-10T08:47:29.848Z,3.400
2023-03-10T08:48:22.929Z,4.250
2023-03-10T08:49:32.576Z,5.350
2023-03-10T08:50:29.082Z,4.400
2023-03-10T08:51:29.929Z,5.400
2023-03-10T08:52:20.887Z,3.300
2023-03-10T08:53:24.825Z,4.150
2023-03-10T08:54:26.760Z,5.550
2023-03-10T08:55:23.469Z,4.800
2023-03-10T08:56:33.668Z,5.000
2023-03-10T08:57:32.572Z,4.600
2023-03-10T08:58:26.409Z,5.100
2023-03-10T08:59:20.358Z,5.200
2023-03-10T09:00:28.559Z,5.450
2023-03-10T09:01:21.414Z,5.300
2023-03-10T09:02:23.248Z,5.000
2023-03-10T09:03:32.697Z,4.550
2023-03-10T09:04:31.709Z,5.200
2023-03-10T09:05:26.359Z,4.400
2023-03-10T09:06:21.082Z,5.200
2023-03-10T09:07:21.246Z,4.200
2023-03-10T09:08:27.764Z,3.900
2023-03-10T09:09:22.782Z,3.100
2023-03-10T09:10:25.324Z,5.350
2023-03-10T09:11:30.236Z,4.350
2023-03-10T09:12:24.600Z,5.100
2023-03-10T09:13:20.736Z,5.700
2023-03-10T09:14:25.818Z,4.700
2023-03-10T09:15:29.870Z,4.400
2023-03-10T09:16:24.750Z,3.700
2023-03-10T09:17:32.271Z,3.350
2023-03-10T09:18:29.202Z,4.200
2023-03-10T09:19:25.232Z,4.600
2023-03-10T09:20:21.885Z,4.600
2023-03-10T09:21:21.321Z,3.600
2023-03-10T09:22:22.545Z,3.400
2023-03-10T09:23:23.784Z,4.700
2023-03-10T09:24:22.161Z,4.350
2023-03-10T09:25:29.688Z,3.800
2023-03-10T09:26:25.203Z,5.250
2023-03-10T09:27:23.435Z,2.100
2023-03-10T09:28:32.069Z,5.050
2023-03-10T09:29:42.037Z,3.500
2023-03-10T09:30:23.228Z,4.100
2023-03-10T09:31:25.823Z,5.650
2023-03-10T09:32:28.139Z,5.050
2023-03-10T09:33:24.980Z,4.100
2023-03-10T09:34:21.158Z,3.000
2023-03-10T09:35:20.103Z,3.350
2023-03-10T09:36:28.381Z,3.050
2023-03-10T09:37:23.588Z,3.400
2023-03-10T09:38:24.296Z,5.450
2023-03-10T09:39:21.084Z,4.400
2023-03-10T09:40:25.255Z,5.700
2023-03-10T09:41:22.333Z,4.350
2023-03-10T09:42:36.390Z,3.800
2023-03-10T09:43:26.403Z,3.800
2023-03-10T09:44:22.510Z,3.650
2023-03-10T09:45:20.652Z,3.400
2023-03-10T09:46:25.199Z,4.600
2023-03-10T09:47:24.470Z,3.850
2023-03-10T09:48:20.804Z,4.000
2023-03-10T09:49:20.375Z,4.100
2023-03-10T09:50:26.896Z,3.850
2023-03-10T09:51:22.177Z,3.400
2023-03-10T09:52:24.500Z,3.650
2023-03-10T09:53:21.195Z,3.950
2023-03-10T09:54:26.056Z,4.000
2023-03-10T09:55:20.455Z,3.450
2023-03-10T09:56:33.391Z,2.800
2023-03-10T09:57:26.821Z,3.550
2023-03-10T09:58:23.558Z,4.150
2023-03-10T09:59:29.537Z,4.200
2023-03-10T10:00:24.595Z,4.550
2023-03-10T10:01:26.476Z,3.400
2023-03-10T10:02:20.477Z,4.250
2023-03-10T10:03:33.327Z,3.700
2023-03-10T10:04:20.996Z,4.250
2023-03-10T10:05:22.900Z,5.000
2023-03-10T10:06:22.826Z,4.800
2023-03-10T10:07:32.576Z,4.050
2023-03-10T10:08:28.114Z,3.900
2023-03-10T10:09:25.675Z,4.000
2023-03-10T10:10:31.646Z,6.300
2023-03-10T10:11:23.274Z,5.000
2023-03-10T10:12:24.415Z,5.000
2023-03-10T10:13:34.091Z,5.100
2023-03-10T10:14:31.922Z,5.400
2023-03-10T10:15:26.308Z,5.800
2023-03-10T10:16:33.563Z,3.900
2023-03-10T10:17:22.423Z,5.300
2023-03-10T10:18:26.886Z,4.800
2023-03-10T10:19:37.334Z,4.800
2023-03-10T10:20:35.196Z,5.450
2023-03-10T10:21:40.383Z,4.400
2023-03-10T10:22:23.129Z,3.700
2023-03-10T10:23:20.689Z,5.350
2023-03-10T10:24:27.100Z,8.050
2023-03-10T10:25:28.481Z,4.750
2023-03-10T10:26:22.717Z,4.300
2023-03-10T10:27:33.847Z,5.550
2023-03-10T10:28:28.671Z,6.300
2023-03-10T10:29:26.049Z,4.600
2023-03-10T10:30:25.543Z,3.700
2023-03-10T10:31:36.098Z,4.350
2023-03-10T10:32:22.446Z,6.200
2023-03-10T10:33:23.090Z,5.600
2023-03-10T10:34:22.962Z,5.150
2023-03-10T10:35:29.967Z,5.750
2023-03-10T10:36:27.922Z,5.900
2023-03-10T10:37:20.323Z,5.500
2023-03-10T10:38:21.281Z,4.050
2023-03-10T10:39:28.318Z,4.950
2023-03-10T10:40:22.587Z,4.800
2023-03-10T10:41:35.412Z,4.800
2023-03-10T10:42:28.051Z,5.600
2023-03-10T10:43:25.608Z,5.100
2023-03-10T10:44:20.614Z,5.850
2023-03-10T10:45:24.522Z,3.600
2023-03-10T10:46:27.900Z,4.950
2023-03-10T10:47:24.392Z,4.600
2023-03-10T10:48:32.738Z,5.650
2023-03-10T10:49:28.883Z,5.650
2023-03-10T10:50:25.556Z,3.900
2023-03-10T10:51:22.827Z,6.250
2023-03-10T10:52:31.956Z,4.800
2023-03-10T10:53:23.854Z,5.900
2023-03-10T10:54:22.681Z,5.450
2023-03-10T10:55:20.885Z,6.800
2023-03-10T10:56:30.648Z,7.100
2023-03-10T10:57:24.413Z,6.200
2023-03-10T10:58:24.187Z,5.900
2023-03-10T10:59:33.572Z,6.950
2023-03-10T11:00:26.677Z,6.900
2023-03-10T11:01:23.781Z,7.800
2023-03-10T11:02:20.255Z,7.550
2023-03-10T11:03:30.104Z,7.200
2023-03-10T11:04:26.742Z,8.400
2023-03-10T11:05:21.357Z,8.750
2023-03-10T11:06:33.721Z,6.600
2023-03-10T11:07:30.938Z,8.900
2023-03-10T11:08:25.198Z,6.300
2023-03-10T11:09:22.489Z,8.200
2023-03-10T11:10:22.623Z,8.300
2023-03-10T11:11:24.545Z,9.800
2023-03-10T11:12:20.716Z,8.300
2023-03-10T11:13:32.493Z,8.300
2023-03-10T11:14:26.782Z,12.300
2023-03-10T11:15:24.929Z,9.600
2023-03-10T11:16:20.689Z,9.100
2023-03-10T11:17:32.733Z,11.100
2023-03-10T11:18:19.356Z,9.200
2023-03-10T11:19:21.910Z,5.600
2023-03-10T11:20:33.294Z,9.000
2023-03-10T11:21:26.855Z,8.900
2023-03-10T11:22:23.381Z,10.300
2023-03-10T11:23:23.619Z,9.100
2023-03-10T11:24:33.454Z,8.450
2023-03-10T11:25:27.472Z,9.900
2023-03-10T11:26:20.629Z,9.900
2023-03-10T11:27:21.892Z,9.800
2023-03-10T11:28:26.687Z,9.600
2023-03-10T11:29:24.144Z,6.200
2023-03-10T11:30:32.532Z,7.650
2023-03-10T11:31:21.752Z,8.900
2023-03-10T11:32:24.787Z,8.050
2023-03-10T11:33:20.902Z,10.100
2023-03-10T11:34:25.724Z,9.350
2023-03-10T11:35:28.323Z,9.750
2023-03-10T11:36:25.549Z,9.050
2023-03-10T11:37:33.055Z,8.800
2023-03-10T11:38:20.847Z,8.850
2023-03-10T11:39:24.722Z,6.400
2023-03-10T11:40:20.534Z,8.000
2023-03-10T11:41:30.548Z,8.850
2023-03-10T11:42:29.232Z,6.900
2023-03-10T11:43:24.005Z,7.350
2023-03-10T11:44:36.762Z,8.300
2023-03-10T11:45:23.476Z,10.500
2023-03-10T11:46:25.265Z,8.500
2023-03-10T11:47:21.378Z,9.400
2023-03-10T11:48:24.302Z,8.550
2023-03-10T11:49:27.226Z,6.800
2023-03-10T11:50:23.991Z,9.100
2023-03-10T11:51:33.771Z,7.100
2023-03-10T11:52:28.733Z,6.900
2023-03-10T11:53:28.141Z,8.750
2023-03-10T11:54:20.616Z,9.600
2023-03-10T11:55:26.873Z,8.800
2023-03-10T11:56:22.079Z,7.400
2023-03-10T11:57:22.652Z,6.800
2023-03-10T11:58:46.856Z,6.500
2023-03-10T11:59:35.075Z,7.000
2023-03-10T12:00:26.079Z,7.500
2023-03-10T12:01:24.124Z,7.100
2023-03-10T12:02:34.150Z,7.750
2023-03-10T12:03:23.901Z,7.000
2023-03-10T12:04:23.127Z,6.200
2023-03-10T12:05:36.014Z,6.500
2023-03-10T12:06:34.915Z,7.000
2023-03-10T12:07:24.812Z,6.500
2023-03-10T12:08:22.177Z,6.950
2023-03-10T12:09:19.776Z,5.800
2023-03-10T12:10:40.671Z,6.500
2023-03-10T12:11:22.693Z,7.500
2023-03-10T12:12:49.260Z,6.400
2023-03-10T12:13:32.983Z,7.300
2023-03-10T12:14:21.678Z,7.400
2023-03-10T12:15:22.626Z,7.500
2023-03-10T12:16:24.043Z,7.050
2023-03-10T12:17:32.059Z,7.500
2023-03-10T12:18:26.918Z,6.700
2023-03-10T12:19:35.479Z,6.850
2023-03-10T12:20:28.736Z,8.600
2023-03-10T12:21:26.115Z,6.100
2023-03-10T12:22:20.665Z,7.850
2023-03-10T12:23:27.582Z,10.600
2023-03-10T12:24:21.047Z,5.700
2023-03-10T12:25:19.660Z,6.500
2023-03-10T12:26:22.695Z,6.600
2023-03-10T12:27:32.590Z,6.250
2023-03-10T12:28:27.768Z,6.700
2023-03-10T12:29:22.204Z,5.650
2023-03-10T12:30:33.500Z,6.250
2023-03-10T12:31:26.668Z,5.000
2023-03-10T12:32:23.282Z,4.800
2023-03-10T12:33:26.818Z,6.850
2023-03-10T12:34:19.725Z,6.700
2023-03-10T12:35:27.092Z,6.400
2023-03-10T12:36:20.995Z,5.150
2023-03-10T12:37:33.740Z,6.700
2023-03-10T12:38:28.830Z,6.800
2023-03-10T12:39:26.986Z,7.100
2023-03-10T12:40:48.312Z,5.800
2023-03-10T12:41:26.590Z,6.100
2023-03-10T12:42:26.195Z,5.350
2023-03-10T12:43:34.958Z,5.500
2023-03-10T12:44:34.563Z,5.600
2023-03-10T12:45:27.311Z,5.600
2023-03-10T12:46:27.069Z,5.450
2023-03-10T12:47:36.910Z,6.100
2023-03-10T12:48:28.871Z,4.900
2023-03-10T12:49:21.776Z,6.100
2023-03-10T12:50:25.171Z,5.950
2023-03-10T12:51:31.263Z,6.150
2023-03-10T12:52:28.234Z,6.300
2023-03-10T12:53:22.502Z,4.200
2023-03-10T12:54:23.753Z,5.800
2023-03-10T12:55:28.914Z,5.500
2023-03-10T12:56:27.075Z,6.450
2023-03-10T12:57:20.554Z,6.100
2023-03-10T12:58:33.009Z,7.200
2023-03-10T12:59:28.965Z,6.450
2023-03-10T13:00:22.712Z,7.550